Time;durP1;ratioP1;P1;durP2;ratioP2;P2;SDS_P1;SDS_P2;PMS_P1;PMS_P2;Temp;Humidity;BMP_temperature;BMP_pressure;BME280_temperature;BME280_humidity;BME280_pressure;Samples;Min_cycle;Max_cycle;Signal;HPM_P1;HPM_P2
2024/01/31 00:01:56;;;;;;;6.97;3.97;;;;;;;;;;5845090;28;20049;-75
2024/01/31 00:04:47;;;;;;;6.70;3.65;;;;;;;;;;5860838;28;20116;-75
2024/01/31 00:07:38;;;;;;;6.95;3.25;;;;;;;;;;5862345;28;20063;-75
2024/01/31 00:10:29;;;;;;;7.70;4.57;;;;;;;;;;5844747;28;20063;-75
2024/01/31 00:13:20;;;;;;;16.73;6.47;;;;;;;;;;5860709;28;20313;-75
2024/01/31 00:16:13;;;;;;;28.08;8.48;;;;;;;;;;5844203;28;20049;-75
2024/01/31 00:19:04;;;;;;;19.75;7.50;;;;;;;;;;5862231;28;20046;-75
2024/01/31 00:21:55;;;;;;;11.25;5.43;;;;;;;;;;5844739;28;20053;-75
2024/01/31 00:24:46;;;;;;;15.20;6.75;;;;;;;;;;5860806;28;20124;-75
2024/01/31 00:27:37;;;;;;;17.13;4.90;;;;;;;;;;5861963;28;20041;-75
2024/01/31 00:30:28;;;;;;;4.38;2.28;;;;;;;;;;5860740;28;20052;-75
2024/01/31 00:33:19;;;;;;;4.32;3.08;;;;;;;;;;5860499;28;20515;-75
2024/01/31 00:36:09;;;;;;;8.43;2.80;;;;;;;;;;5860559;28;20053;-75
2024/01/31 00:39:00;;;;;;;4.00;2.10;;;;;;;;;;5861291;28;20049;-75
2024/01/31 00:41:51;;;;;;;5.75;3.35;;;;;;;;;;5865411;28;20042;-75
2024/01/31 00:44:42;;;;;;;3.42;2.58;;;;;;;;;;5864882;28;20491;-75
2024/01/31 00:47:33;;;;;;;3.45;2.35;;;;;;;;;;5865040;28;20082;-75
2024/01/31 00:50:24;;;;;;;3.35;2.60;;;;;;;;;;5866202;28;20052;-75
2024/01/31 00:53:15;;;;;;;5.47;2.35;;;;;;;;;;5848570;28;20056;-75
2024/01/31 00:56:08;;;;;;;3.58;2.03;;;;;;;;;;5864884;28;20046;-76
2024/01/31 00:59:00;;;;;;;7.28;3.72;;;;;;;;;;5849255;28;20518;-75
2024/01/31 01:01:51;;;;;;;10.45;3.67;;;;;;;;;;5844373;28;20052;-75
2024/01/31 01:04:43;;;;;;;3.63;2.90;;;;;;;;;;5851819;28;20177;-75
2024/01/31 01:07:36;;;;;;;6.50;3.15;;;;;;;;;;5858062;28;20414;-75
2024/01/31 01:10:28;;;;;;;4.70;3.38;;;;;;;;;;5857707;28;20066;-75
2024/01/31 01:13:18;;;;;;;5.03;2.00;;;;;;;;;;5857912;28;20048;-75
2024/01/31 01:16:09;;;;;;;8.07;3.10;;;;;;;;;;5839830;28;20053;-75
2024/01/31 01:19:01;;;;;;;3.90;2.13;;;;;;;;;;5843102;28;20053;-75
2024/01/31 01:21:51;;;;;;;3.70;3.03;;;;;;;;;;5818582;28;20047;-75
2024/01/31 01:24:42;;;;;;;16.83;3.55;;;;;;;;;;5819501;28;20413;-75
2024/01/31 01:27:34;;;;;;;2.97;1.85;;;;;;;;;;5818201;28;20057;-75
2024/01/31 01:30:26;;;;;;;7.25;2.05;;;;;;;;;;5818233;28;20149;-75
2024/01/31 01:33:17;;;;;;;2.47;2.25;;;;;;;;;;5817994;28;20050;-75
2024/01/31 01:36:08;;;;;;;4.07;2.60;;;;;;;;;;5817757;28;20056;-75
2024/01/31 01:38:58;;;;;;;2.47;2.28;;;;;;;;;;5834741;28;20054;-75
2024/01/31 01:41:50;;;;;;;5.90;2.53;;;;;;;;;;5818124;28;20416;-75
2024/01/31 01:44:45;;;;;;;2.97;2.05;;;;;;;;;;5817633;28;20050;-75
2024/01/31 01:47:36;;;;;;;2.05;1.15;;;;;;;;;;5817780;28;20101;-75
2024/01/31 01:50:27;;;;;;;2.35;1.70;;;;;;;;;;5818818;28;20053;-75
2024/01/31 01:53:18;;;;;;;3.13;2.15;;;;;;;;;;5817682;28;20054;-75
2024/01/31 01:56:09;;;;;;;2.65;2.13;;;;;;;;;;5817553;28;20058;-75
2024/01/31 01:59:00;;;;;;;3.72;2.53;;;;;;;;;;5834438;28;20043;-75
2024/01/31 02:01:52;;;;;;;3.90;2.70;;;;;;;;;;5817836;28;20134;-75
2024/01/31 02:04:43;;;;;;;2.22;2.00;;;;;;;;;;5817447;28;20069;-75
2024/01/31 02:07:34;;;;;;;1.98;1.73;;;;;;;;;;5817244;28;20050;-74
2024/01/31 02:10:26;;;;;;;4.03;2.53;;;;;;;;;;5817380;28;20039;-75
2024/01/31 02:13:16;;;;;;;1.70;1.60;;;;;;;;;;5817096;28;20064;-75
2024/01/31 02:16:07;;;;;;;10.02;2.65;;;;;;;;;;5817049;28;20125;-75
2024/01/31 02:18:58;;;;;;;9.02;2.67;;;;;;;;;;5817362;28;20077;-75
2024/01/31 02:21:52;;;;;;;9.05;3.88;;;;;;;;;;5817148;28;20527;-75
2024/01/31 02:24:43;;;;;;;2.78;2.33;;;;;;;;;;5816993;28;20046;-74
2024/01/31 02:27:34;;;;;;;6.50;3.72;;;;;;;;;;5816970;28;20046;-75
2024/01/31 02:30:25;;;;;;;16.50;4.53;;;;;;;;;;5818177;28;20057;-75
2024/01/31 02:33:15;;;;;;;12.52;4.45;;;;;;;;;;5816571;28;20472;-74
2024/01/31 02:36:06;;;;;;;6.53;3.33;;;;;;;;;;5816486;28;20062;-75
2024/01/31 02:38:57;;;;;;;14.18;4.15;;;;;;;;;;5817291;28;20566;-74
2024/01/31 02:41:48;;;;;;;4.35;2.97;;;;;;;;;;5816873;28;20497;-75
2024/01/31 02:44:38;;;;;;;6.38;3.40;;;;;;;;;;5816624;28;20468;-75
2024/01/31 02:47:29;;;;;;;5.05;2.70;;;;;;;;;;5816503;28;20046;-75
2024/01/31 02:50:20;;;;;;;5.00;2.92;;;;;;;;;;5816557;28;20054;-75
2024/01/31 02:53:11;;;;;;;9.38;3.25;;;;;;;;;;5816529;28;20057;-75
2024/01/31 02:56:02;;;;;;;9.55;2.58;;;;;;;;;;5816355;28;20053;-75
2024/01/31 02:58:53;;;;;;;7.70;2.38;;;;;;;;;;5816470;28;20050;-75
2024/01/31 03:01:45;;;;;;;8.57;4.18;;;;;;;;;;5815900;28;20038;-75
2024/01/31 03:04:36;;;;;;;4.95;2.72;;;;;;;;;;5800255;28;20046;-75
2024/01/31 03:07:27;;;;;;;4.75;2.83;;;;;;;;;;5815975;28;20046;-75
2024/01/31 03:10:18;;;;;;;4.80;2.67;;;;;;;;;;5816249;28;20145;-75
2024/01/31 03:13:09;;;;;;;5.20;3.17;;;;;;;;;;5817409;28;20424;-75
2024/01/31 03:15:59;;;;;;;4.60;2.55;;;;;;;;;;5832418;28;20100;-74
2024/01/31 03:18:50;;;;;;;4.82;3.38;;;;;;;;;;5816073;28;20357;-75
2024/01/31 03:21:41;;;;;;;7.22;3.00;;;;;;;;;;5815856;28;20069;-75
2024/01/31 03:24:32;;;;;;;8.13;4.07;;;;;;;;;;5799443;28;20046;-75
2024/01/31 03:27:23;;;;;;;13.55;3.45;;;;;;;;;;5815780;28;20046;-75
2024/01/31 03:30:14;;;;;;;5.97;3.33;;;;;;;;;;5815659;28;20428;-75
2024/01/31 03:33:05;;;;;;;6.45;2.60;;;;;;;;;;5816760;28;20042;-75
2024/01/31 03:35:56;;;;;;;6.70;2.85;;;;;;;;;;5817430;28;20038;-74
2024/01/31 03:38:47;;;;;;;6.78;2.83;;;;;;;;;;5815667;28;20612;-75
2024/01/31 03:41:46;;;;;;;4.85;3.22;;;;;;;;;;5815631;28;20057;-75
2024/01/31 03:44:36;;;;;;;;;;;;;;;;;;5816006;28;20047;-75
2024/01/31 03:47:27;;;;;;;5.88;3.30;;;;;;;;;;5815751;28;20497;-74
2024/01/31 03:50:19;;;;;;;3.10;2.80;;;;;;;;;;5815399;28;20177;-75
2024/01/31 03:53:10;;;;;;;8.38;3.90;;;;;;;;;;5815155;28;20504;-75
2024/01/31 03:56:01;;;;;;;5.13;2.75;;;;;;;;;;5799276;28;20042;-75
2024/01/31 03:58:52;;;;;;;5.72;2.70;;;;;;;;;;5817066;28;20046;-74
2024/01/31 04:01:42;;;;;;;6.90;3.53;;;;;;;;;;5815089;28;20061;-75
2024/01/31 04:04:33;;;;;;;8.63;2.83;;;;;;;;;;5815159;28;20045;-74
2024/01/31 04:07:25;;;;;;;2.97;2.40;;;;;;;;;;5815042;28;20050;-75
2024/01/31 04:10:16;;;;;;;3.03;1.85;;;;;;;;;;5815062;28;20054;-75
2024/01/31 04:13:06;;;;;;;3.47;2.80;;;;;;;;;;5816300;28;20053;-75
2024/01/31 04:15:58;;;;;;;4.72;3.58;;;;;;;;;;5802971;28;20054;-75
2024/01/31 04:18:49;;;;;;;6.63;2.90;;;;;;;;;;5803558;28;20053;-75
2024/01/31 04:21:40;;;;;;;5.72;3.35;;;;;;;;;;5819881;28;20054;-75
2024/01/31 04:24:30;;;;;;;4.63;2.88;;;;;;;;;;5819565;28;20046;-75
2024/01/31 04:27:21;;;;;;;10.48;2.78;;;;;;;;;;5819677;28;20081;-75
2024/01/31 04:30:12;;;;;;;5.13;2.25;;;;;;;;;;5820920;28;20058;-75
2024/01/31 04:33:03;;;;;;;7.47;2.40;;;;;;;;;;5819439;28;20081;-75
2024/01/31 04:35:54;;;;;;;4.55;2.58;;;;;;;;;;5819823;28;20082;-75
2024/01/31 04:38:45;;;;;;;3.65;3.30;;;;;;;;;;5835346;28;20042;-75
2024/01/31 04:41:36;;;;;;;11.45;4.85;;;;;;;;;;5819133;28;20042;-75
2024/01/31 04:44:27;;;;;;;2.63;2.15;;;;;;;;;;5818923;28;20053;-75
2024/01/31 04:47:18;;;;;;;18.60;4.03;;;;;;;;;;5818932;28;20053;-75
2024/01/31 04:50:09;;;;;;;6.13;4.22;;;;;;;;;;5818861;28;20057;-75
2024/01/31 04:53:00;;;;;;;8.57;3.75;;;;;;;;;;5819451;28;20054;-75
2024/01/31 04:55:51;;;;;;;8.35;2.60;;;;;;;;;;5843465;28;20042;-75
2024/01/31 04:58:42;;;;;;;3.67;3.30;;;;;;;;;;5841939;28;20538;-75
2024/01/31 05:01:33;;;;;;;5.95;3.22;;;;;;;;;;5843002;28;20112;-75
2024/01/31 05:04:25;;;;;;;5.40;3.20;;;;;;;;;;5858153;28;20038;-76
2024/01/31 05:07:16;;;;;;;2.90;2.03;;;;;;;;;;5842843;28;20104;-75
2024/01/31 05:10:08;;;;;;;4.07;3.05;;;;;;;;;;5841065;28;20417;-75
2024/01/31 05:13:00;;;;;;;4.63;3.45;;;;;;;;;;5819447;28;20112;-75
2024/01/31 05:15:51;;;;;;;3.38;2.25;;;;;;;;;;5850007;28;20048;-75
2024/01/31 05:18:42;;;;;;;5.00;2.92;;;;;;;;;;5857976;28;20038;-75
2024/01/31 05:21:32;;;;;;;4.93;3.15;;;;;;;;;;5837280;28;20053;-75
2024/01/31 05:24:23;;;;;;;5.32;2.35;;;;;;;;;;5819681;28;20081;-76
2024/01/31 05:27:14;;;;;;;2.88;2.13;;;;;;;;;;5842301;28;20061;-75
2024/01/31 05:30:06;;;;;;;3.58;2.13;;;;;;;;;;5818488;28;20058;-75
2024/01/31 05:32:57;;;;;;;3.63;2.83;;;;;;;;;;5818698;28;20049;-75
2024/01/31 05:35:48;;;;;;;6.38;3.63;;;;;;;;;;5817975;28;20562;-76
2024/01/31 05:38:40;;;;;;;3.40;2.67;;;;;;;;;;5818076;28;20042;-76
2024/01/31 05:41:31;;;;;;;9.30;4.07;;;;;;;;;;5801840;28;20412;-75
2024/01/31 05:44:22;;;;;;;4.00;3.10;;;;;;;;;;5817755;28;20496;-76
2024/01/31 05:47:13;;;;;;;4.15;3.55;;;;;;;;;;5817950;28;20046;-76
2024/01/31 05:50:04;;;;;;;8.40;4.30;;;;;;;;;;5817962;28;20093;-76
2024/01/31 05:52:55;;;;;;;4.80;3.10;;;;;;;;;;5819461;28;20065;-76
2024/01/31 05:55:45;;;;;;;2.70;2.47;;;;;;;;;;5817861;28;20053;-75
2024/01/31 05:58:36;;;;;;;6.22;3.83;;;;;;;;;;5817863;28;20407;-76
2024/01/31 06:01:27;;;;;;;8.35;4.38;;;;;;;;;;5818967;28;20054;-76
2024/01/31 06:04:18;;;;;;;6.55;4.18;;;;;;;;;;5817777;28;20421;-76
2024/01/31 06:07:10;;;;;;;5.90;3.53;;;;;;;;;;5817152;28;20121;-76
2024/01/31 06:10:01;;;;;;;7.22;3.67;;;;;;;;;;5817458;28;20436;-76
2024/01/31 06:12:52;;;;;;;6.00;3.67;;;;;;;;;;5818018;28;20097;-76
2024/01/31 06:15:43;;;;;;;6.18;3.17;;;;;;;;;;5818453;28;20042;-76
2024/01/31 06:18:34;;;;;;;5.10;3.80;;;;;;;;;;5818787;28;20042;-76
2024/01/31 06:21:25;;;;;;;6.10;3.40;;;;;;;;;;5817004;28;20752;-76
2024/01/31 06:24:16;;;;;;;3.92;3.33;;;;;;;;;;5818094;28;20050;-77
2024/01/31 06:27:07;;;;;;;5.70;3.78;;;;;;;;;;5816842;28;20055;-76
2024/01/31 06:30:00;;;;;;;10.40;5.05;;;;;;;;;;5818750;28;20074;-76
2024/01/31 06:32:51;;;;;;;7.65;4.22;;;;;;;;;;5809012;28;20061;-77
2024/01/31 06:35:42;;;;;;;7.28;4.85;;;;;;;;;;5816787;28;20109;-76
2024/01/31 06:38:33;;;;;;;6.47;3.75;;;;;;;;;;5815775;28;20049;-76
2024/01/31 06:41:23;;;;;;;6.80;4.20;;;;;;;;;;5816573;28;20042;-76
2024/01/31 06:44:14;;;;;;;10.60;4.35;;;;;;;;;;5800563;28;20046;-77
2024/01/31 06:47:05;;;;;;;5.18;3.10;;;;;;;;;;5816706;28;20046;-76
2024/01/31 06:49:56;;;;;;;4.00;3.63;;;;;;;;;;5833080;28;20047;-76
2024/01/31 06:52:47;;;;;;;6.28;4.40;;;;;;;;;;5816304;28;20649;-76
2024/01/31 06:55:38;;;;;;;5.93;3.97;;;;;;;;;;5816256;28;20085;-76
2024/01/31 06:58:31;;;;;;;4.00;3.45;;;;;;;;;;5817878;28;20113;-76
2024/01/31 07:01:22;;;;;;;5.38;4.55;;;;;;;;;;5817487;28;20042;-76
2024/01/31 07:04:13;;;;;;;6.18;3.80;;;;;;;;;;5816151;28;20058;-76
2024/01/31 07:07:04;;;;;;;8.77;5.22;;;;;;;;;;5817426;28;20077;-76
2024/01/31 07:09:55;;;;;;;12.82;9.00;;;;;;;;;;5816883;28;20046;-77
2024/01/31 07:12:45;;;;;;;7.07;6.10;;;;;;;;;;5817232;28;20050;-76
2024/01/31 07:15:36;;;;;;;7.60;4.43;;;;;;;;;;5816078;28;20038;-76
2024/01/31 07:18:27;;;;;;;10.75;5.72;;;;;;;;;;5815943;28;20137;-77
2024/01/31 07:21:27;;;;;;;6.82;4.60;;;;;;;;;;5799856;28;20061;-77
2024/01/31 07:24:18;;;;;;;4.40;3.97;;;;;;;;;;5817137;28;20055;-77
2024/01/31 07:27:19;;;;;;;9.75;4.47;;;;;;;;;;5815806;28;20046;-77
2024/01/31 07:30:11;;;;;;;9.50;4.45;;;;;;;;;;5799685;28;20046;-77
2024/01/31 07:33:02;;;;;;;5.80;4.32;;;;;;;;;;5831628;28;20057;-77
2024/01/31 07:35:52;;;;;;;4.57;4.07;;;;;;;;;;5816136;28;20069;-77
2024/01/31 07:38:45;;;;;;;7.72;5.03;;;;;;;;;;5831433;28;20046;-76
2024/01/31 07:41:36;;;;;;;5.57;3.72;;;;;;;;;;5815538;28;20038;-76
2024/01/31 07:44:26;;;;;;;4.72;4.22;;;;;;;;;;5815476;28;20062;-77
2024/01/31 07:47:21;;;;;;;9.45;5.70;;;;;;;;;;5815700;28;20422;-77
2024/01/31 07:50:13;;;;;;;13.13;5.50;;;;;;;;;;5815328;28;20043;-77
2024/01/31 07:53:05;;;;;;;8.38;4.28;;;;;;;;;;5799231;28;20436;-76
2024/01/31 07:55:56;;;;;;;4.65;4.05;;;;;;;;;;5815335;28;20680;-76
2024/01/31 07:58:47;;;;;;;8.90;6.07;;;;;;;;;;5815183;28;20145;-77
2024/01/31 08:01:37;;;;;;;7.47;4.40;;;;;;;;;;5815099;28;20056;-77
2024/01/31 08:04:28;;;;;;;17.80;7.47;;;;;;;;;;5816434;28;20051;-77
2024/01/31 08:07:19;;;;;;;11.80;7.35;;;;;;;;;;5815224;28;20050;-77
2024/01/31 08:10:15;;;;;;;12.13;6.35;;;;;;;;;;5814994;28;20042;-77
2024/01/31 08:13:05;;;;;;;6.07;5.55;;;;;;;;;;5815261;28;20057;-77
2024/01/31 08:15:56;;;;;;;8.40;6.30;;;;;;;;;;5815555;28;20594;-77
2024/01/31 08:18:47;;;;;;;7.68;6.10;;;;;;;;;;5814904;28;20408;-77
2024/01/31 08:21:38;;;;;;;5.05;4.32;;;;;;;;;;5831416;28;20409;-77
2024/01/31 08:24:30;;;;;;;7.20;4.97;;;;;;;;;;5814925;28;20093;-77
2024/01/31 08:27:20;;;;;;;11.98;5.90;;;;;;;;;;5814954;28;20058;-76
2024/01/31 08:30:12;;;;;;;17.38;8.80;;;;;;;;;;5816142;28;20077;-76
2024/01/31 08:33:03;;;;;;;13.18;7.60;;;;;;;;;;5814876;28;20116;-76
2024/01/31 08:35:55;;;;;;;8.05;4.35;;;;;;;;;;5815401;28;20047;-76
2024/01/31 08:38:45;;;;;;;9.23;5.32;;;;;;;;;;5814877;28;20049;-76
2024/01/31 08:41:36;;;;;;;8.85;5.03;;;;;;;;;;5798876;28;20042;-76
2024/01/31 08:44:27;;;;;;;11.57;7.00;;;;;;;;;;5814918;28;20046;-76
2024/01/31 08:47:18;;;;;;;11.40;6.93;;;;;;;;;;5814807;28;20050;-77
2024/01/31 08:50:10;;;;;;;17.77;9.20;;;;;;;;;;5814703;28;20058;-76
2024/01/31 08:53:01;;;;;;;11.77;7.00;;;;;;;;;;5814670;28;20050;-76
2024/01/31 08:55:52;;;;;;;18.60;8.32;;;;;;;;;;5815231;28;20065;-76
2024/01/31 08:58:58;;;;;;;11.95;8.52;;;;;;;;;;5830925;28;20057;-76
2024/01/31 09:01:48;;;;;;;13.40;9.77;;;;;;;;;;5833761;28;20042;-76
2024/01/31 09:04:39;;;;;;;21.95;11.48;;;;;;;;;;5818607;28;20065;-77
2024/01/31 09:07:30;;;;;;;19.02;9.38;;;;;;;;;;5818724;28;20073;-76
2024/01/31 09:10:22;;;;;;;8.65;4.55;;;;;;;;;;5820101;28;20385;-76
2024/01/31 09:13:13;;;;;;;4.60;3.22;;;;;;;;;;5819694;28;20050;-76
2024/01/31 09:16:05;;;;;;;4.38;3.08;;;;;;;;;;5818605;28;20176;-76
2024/01/31 09:18:56;;;;;;;5.18;2.65;;;;;;;;;;5820211;28;20042;-76
2024/01/31 09:21:47;;;;;;;10.43;5.82;;;;;;;;;;5818447;28;20042;-76
2024/01/31 09:24:38;;;;;;;4.20;3.38;;;;;;;;;;5834526;28;20046;-76
2024/01/31 09:27:28;;;;;;;9.35;4.13;;;;;;;;;;5834558;28;20038;-76
2024/01/31 09:30:19;;;;;;;7.45;3.05;;;;;;;;;;5834605;28;20057;-76
2024/01/31 09:33:10;;;;;;;11.70;4.63;;;;;;;;;;5819222;28;20049;-76
2024/01/31 09:36:01;;;;;;;5.80;4.75;;;;;;;;;;5834358;28;20056;-76
2024/01/31 09:38:52;;;;;;;5.68;4.20;;;;;;;;;;5834771;28;20419;-76
2024/01/31 09:41:43;;;;;;;8.43;4.18;;;;;;;;;;5834408;28;20042;-76
2024/01/31 09:44:35;;;;;;;9.10;5.47;;;;;;;;;;5834081;28;20057;-76
2024/01/31 09:47:29;;;;;;;5.78;5.18;;;;;;;;;;5817896;28;20050;-76
2024/01/31 09:50:20;;;;;;;5.97;5.10;;;;;;;;;;5833854;28;20054;-76
2024/01/31 09:53:13;;;;;;;5.85;4.63;;;;;;;;;;5833730;28;20046;-76
2024/01/31 09:56:07;;;;;;;21.77;13.90;;;;;;;;;;5833943;28;20051;-76
2024/01/31 09:58:59;;;;;;;24.50;10.88;;;;;;;;;;5818484;28;20046;-76
2024/01/31 10:01:52;;;;;;;19.35;11.88;;;;;;;;;;5817742;28;20408;-76
2024/01/31 10:04:48;;;;;;;17.05;10.32;;;;;;;;;;5817530;28;20039;-76
2024/01/31 10:07:39;;;;;;;11.98;9.15;;;;;;;;;;5817501;28;20066;-76
2024/01/31 10:10:31;;;;;;;25.33;17.48;;;;;;;;;;5817557;28;20146;-76
2024/01/31 10:13:25;;;;;;;13.70;10.90;;;;;;;;;;5818659;28;20348;-76
2024/01/31 10:16:16;;;;;;;26.60;16.65;;;;;;;;;;5817053;28;20132;-76
2024/01/31 10:19:06;;;;;;;17.75;9.23;;;;;;;;;;5825632;28;20054;-76
2024/01/31 10:21:57;;;;;;;15.82;11.40;;;;;;;;;;5801553;28;20077;-76
2024/01/31 10:24:49;;;;;;;22.60;12.90;;;;;;;;;;5833319;28;20038;-76
2024/01/31 10:27:40;;;;;;;18.23;10.43;;;;;;;;;;5815798;28;20077;-76
2024/01/31 10:30:31;;;;;;;20.25;11.77;;;;;;;;;;5833202;28;20058;-76
2024/01/31 10:33:23;;;;;;;9.10;7.60;;;;;;;;;;5818166;28;20438;-77
2024/01/31 10:36:16;;;;;;;13.20;9.07;;;;;;;;;;5816785;28;20420;-77
2024/01/31 10:39:09;;;;;;;9.68;6.53;;;;;;;;;;5816781;28;20042;-76
2024/01/31 10:42:01;;;;;;;9.02;5.75;;;;;;;;;;5816647;28;20061;-77
2024/01/31 10:44:53;;;;;;;7.63;6.72;;;;;;;;;;5817322;28;20050;-76
2024/01/31 10:47:44;;;;;;;10.35;6.95;;;;;;;;;;5816352;28;20544;-76
2024/01/31 10:50:35;;;;;;;6.75;4.95;;;;;;;;;;5817969;28;20125;-76
2024/01/31 10:53:29;;;;;;;7.47;6.72;;;;;;;;;;5816374;28;20559;-76
2024/01/31 10:56:20;;;;;;;12.65;7.47;;;;;;;;;;5816757;28;20053;-76
2024/01/31 10:59:12;;;;;;;9.23;6.55;;;;;;;;;;5816270;28;20350;-76
2024/01/31 11:02:03;;;;;;;16.83;9.05;;;;;;;;;;5816085;28;20053;-76
2024/01/31 11:05:04;;;;;;;10.45;7.45;;;;;;;;;;5816469;28;20084;-76
2024/01/31 11:07:55;;;;;;;;;;;;;;;;;;5832007;28;20041;-76
2024/01/31 11:10:47;;;;;;;14.30;7.93;;;;;;;;;;5816416;28;19929;-77
2024/01/31 11:13:39;;;;;;;14.90;6.68;;;;;;;;;;5832110;28;20043;-76
2024/01/31 11:16:29;;;;;;;10.82;6.68;;;;;;;;;;5832165;28;20049;-76
2024/01/31 11:19:20;;;;;;;10.57;7.68;;;;;;;;;;5840005;28;20109;-76
2024/01/31 11:22:12;;;;;;;5.68;4.85;;;;;;;;;;5815756;28;20046;-76
2024/01/31 11:25:07;;;;;;;12.10;8.07;;;;;;;;;;5815321;28;20050;-77
2024/01/31 11:27:58;;;;;;;8.45;5.32;;;;;;;;;;5816140;28;20038;-76
2024/01/31 11:30:51;;;;;;;10.00;6.38;;;;;;;;;;5830668;28;20038;-76
2024/01/31 11:33:43;;;;;;;8.07;7.05;;;;;;;;;;5838253;28;20056;-76
2024/01/31 11:36:34;;;;;;;9.23;5.80;;;;;;;;;;5838209;28;20080;-76
2024/01/31 11:39:25;;;;;;;9.70;5.40;;;;;;;;;;5835049;28;20499;-76
2024/01/31 11:42:16;;;;;;;7.72;5.55;;;;;;;;;;5817116;28;20050;-76
2024/01/31 11:45:07;;;;;;;10.68;8.23;;;;;;;;;;5799599;28;20064;-76
2024/01/31 11:47:58;;;;;;;9.60;7.25;;;;;;;;;;5815953;28;20101;-76
2024/01/31 11:50:49;;;;;;;8.80;6.28;;;;;;;;;;5839980;28;20049;-76
2024/01/31 11:53:40;;;;;;;12.90;6.63;;;;;;;;;;5831586;28;20053;-76
2024/01/31 11:56:31;;;;;;;12.40;7.35;;;;;;;;;;5816701;28;20068;-76
2024/01/31 11:59:22;;;;;;;9.90;4.25;;;;;;;;;;5815179;28;20053;-76
2024/01/31 12:02:13;;;;;;;23.95;6.63;;;;;;;;;;5839342;28;20046;-77
2024/01/31 12:05:05;;;;;;;12.38;7.45;;;;;;;;;;5815445;28;20404;-76
2024/01/31 12:07:58;;;;;;;9.90;5.88;;;;;;;;;;5817136;28;20046;-76
2024/01/31 12:10:50;;;;;;;8.40;5.93;;;;;;;;;;5815356;28;20054;-77
2024/01/31 12:13:41;;;;;;;8.77;5.85;;;;;;;;;;5816151;28;20408;-76
2024/01/31 12:16:41;;;;;;;10.77;8.13;;;;;;;;;;5814870;28;20043;-77
2024/01/31 12:19:32;;;;;;;10.93;7.07;;;;;;;;;;5814881;28;20619;-77
2024/01/31 12:22:22;;;;;;;5.88;5.32;;;;;;;;;;5815126;28;20042;-76
2024/01/31 12:25:13;;;;;;;8.20;7.10;;;;;;;;;;5831324;28;20054;-77
2024/01/31 12:28:06;;;;;;;15.23;9.68;;;;;;;;;;5814747;28;20125;-76
2024/01/31 12:30:57;;;;;;;18.33;8.65;;;;;;;;;;5815274;28;20192;-76
2024/01/31 12:33:48;;;;;;;11.15;9.35;;;;;;;;;;5814654;28;20046;-76
2024/01/31 12:36:39;;;;;;;23.85;11.88;;;;;;;;;;5818970;28;20089;-76
2024/01/31 12:39:29;;;;;;;21.35;14.13;;;;;;;;;;5835459;28;20046;-76
2024/01/31 12:42:21;;;;;;;14.35;11.13;;;;;;;;;;5835434;28;20058;-77
2024/01/31 12:45:12;;;;;;;10.60;9.38;;;;;;;;;;5820345;28;20058;-77
2024/01/31 12:48:04;;;;;;;11.88;7.05;;;;;;;;;;5819272;28;20177;-77
2024/01/31 12:50:58;;;;;;;13.05;7.55;;;;;;;;;;5820698;28;20046;-77
2024/01/31 12:53:49;;;;;;;7.45;5.63;;;;;;;;;;5818949;28;20049;-77
2024/01/31 12:56:40;;;;;;;9.35;7.55;;;;;;;;;;5802931;28;20042;-76
2024/01/31 12:59:31;;;;;;;39.20;8.32;;;;;;;;;;5820114;28;20038;-77
2024/01/31 13:02:22;;;;;;;9.15;5.90;;;;;;;;;;5818744;28;20129;-77
2024/01/31 13:05:13;;;;;;;15.73;7.78;;;;;;;;;;5818768;28;20050;-77
2024/01/31 13:08:05;;;;;;;7.07;6.40;;;;;;;;;;5818672;28;20849;-77
2024/01/31 13:10:56;;;;;;;35.45;6.30;;;;;;;;;;5820108;28;20532;-77
2024/01/31 13:13:49;;;;;;;11.13;6.35;;;;;;;;;;5818705;28;20159;-77
2024/01/31 13:16:40;;;;;;;8.52;6.38;;;;;;;;;;5819045;28;20043;-77
2024/01/31 13:19:44;;;;;;;11.95;7.15;;;;;;;;;;5819653;28;20373;-77
2024/01/31 13:22:35;;;;;;;11.90;8.80;;;;;;;;;;5818352;28;20054;-77
2024/01/31 13:25:26;;;;;;;11.48;6.10;;;;;;;;;;5818608;28;20400;-77
2024/01/31 13:28:17;;;;;;;11.32;5.32;;;;;;;;;;5818426;28;20093;-77
2024/01/31 13:31:08;;;;;;;11.25;5.72;;;;;;;;;;5819475;28;20046;-76
2024/01/31 13:33:59;;;;;;;11.50;6.85;;;;;;;;;;5819815;28;20054;-76
2024/01/31 13:36:51;;;;;;;10.40;8.00;;;;;;;;;;5818177;28;20126;-77
2024/01/31 13:39:42;;;;;;;11.75;5.97;;;;;;;;;;5801863;28;20046;-76
2024/01/31 13:42:33;;;;;;;5.85;5.15;;;;;;;;;;5817909;28;20042;-76
2024/01/31 13:45:24;;;;;;;18.08;5.60;;;;;;;;;;5817809;28;20054;-77
2024/01/31 13:48:15;;;;;;;9.48;6.55;;;;;;;;;;5817317;28;20409;-77
2024/01/31 13:51:05;;;;;;;10.82;6.68;;;;;;;;;;5819072;28;20125;-77
2024/01/31 13:53:56;;;;;;;13.73;9.65;;;;;;;;;;5818453;28;20056;-77
2024/01/31 13:56:47;;;;;;;15.82;13.27;;;;;;;;;;5819015;28;20471;-77
2024/01/31 13:59:38;;;;;;;27.85;15.07;;;;;;;;;;5833699;28;20046;-76
2024/01/31 14:02:29;;;;;;;20.02;14.30;;;;;;;;;;5833637;28;20052;-76
2024/01/31 14:05:19;;;;;;;19.95;10.80;;;;;;;;;;5833832;28;20133;-77
2024/01/31 14:08:10;;;;;;;29.13;14.15;;;;;;;;;;5833487;28;20050;-77
2024/01/31 14:11:01;;;;;;;15.63;9.43;;;;;;;;;;5818800;28;20057;-77
2024/01/31 14:13:52;;;;;;;25.75;10.90;;;;;;;;;;5818035;28;20046;-77
2024/01/31 14:16:43;;;;;;;20.80;10.52;;;;;;;;;;5833354;28;20477;-76
2024/01/31 14:19:36;;;;;;;18.05;10.38;;;;;;;;;;5833320;28;20046;-77
2024/01/31 14:22:27;;;;;;;8.73;7.15;;;;;;;;;;5818536;28;20053;-77
2024/01/31 14:25:38;;;;;;;8.85;7.07;;;;;;;;;;5817232;28;20096;-77
2024/01/31 14:28:29;;;;;;;17.35;11.57;;;;;;;;;;5816882;28;20050;-77
2024/01/31 14:31:20;;;;;;;27.20;14.95;;;;;;;;;;5833146;28;20054;-77
2024/01/31 14:34:11;;;;;;;10.88;9.00;;;;;;;;;;5816744;28;20046;-77
2024/01/31 14:37:02;;;;;;;16.50;13.65;;;;;;;;;;5816664;28;20078;-77
2024/01/31 14:39:53;;;;;;;15.25;8.93;;;;;;;;;;5817150;28;20050;-77
2024/01/31 14:42:44;;;;;;;9.40;7.82;;;;;;;;;;5817727;28;20046;-77
2024/01/31 14:45:35;;;;;;;21.67;6.85;;;;;;;;;;5816597;28;20049;-77
2024/01/31 14:48:26;;;;;;;20.20;11.02;;;;;;;;;;5816595;28;20052;-77
2024/01/31 14:51:17;;;;;;;23.27;15.18;;;;;;;;;;5832604;28;20250;-77
2024/01/31 14:54:07;;;;;;;30.58;16.70;;;;;;;;;;5832423;28;20050;-77
2024/01/31 14:56:58;;;;;;;15.93;9.70;;;;;;;;;;5832751;28;20159;-77
2024/01/31 14:59:49;;;;;;;15.93;7.97;;;;;;;;;;5817126;28;20046;-77
2024/01/31 15:02:40;;;;;;;18.05;7.78;;;;;;;;;;5815982;28;20130;-77
2024/01/31 15:05:31;;;;;;;14.13;8.95;;;;;;;;;;5816051;28;20049;-77
2024/01/31 15:08:22;;;;;;;8.63;5.07;;;;;;;;;;5832221;28;20444;-77
2024/01/31 15:11:13;;;;;;;20.92;6.22;;;;;;;;;;5817350;28;20046;-77
2024/01/31 15:14:04;;;;;;;7.03;6.05;;;;;;;;;;5799951;28;20054;-77
2024/01/31 15:16:55;;;;;;;19.33;7.13;;;;;;;;;;5800290;28;20053;-77
2024/01/31 15:19:49;;;;;;;6.28;5.25;;;;;;;;;;5816163;28;20050;-77
2024/01/31 15:22:42;;;;;;;8.63;5.38;;;;;;;;;;5815855;28;20046;-77
2024/01/31 15:25:33;;;;;;;16.70;8.48;;;;;;;;;;5815782;28;20047;-77
2024/01/31 15:28:23;;;;;;;11.55;7.78;;;;;;;;;;5815523;28;20161;-77
2024/01/31 15:31:15;;;;;;;17.17;8.10;;;;;;;;;;5815681;28;20050;-77
2024/01/31 15:34:08;;;;;;;9.77;6.28;;;;;;;;;;5815648;28;20038;-77
2024/01/31 15:36:59;;;;;;;7.57;5.47;;;;;;;;;;5799844;28;20053;-77
2024/01/31 15:39:50;;;;;;;10.82;7.22;;;;;;;;;;5815760;28;20085;-77
2024/01/31 15:42:41;;;;;;;11.10;8.88;;;;;;;;;;5815498;28;20042;-77
2024/01/31 15:45:32;;;;;;;18.33;11.30;;;;;;;;;;5815640;28;20153;-77
2024/01/31 15:48:24;;;;;;;16.25;10.73;;;;;;;;;;5831595;28;20046;-77
2024/01/31 15:51:14;;;;;;;21.05;11.02;;;;;;;;;;5815170;28;20061;-77
2024/01/31 15:54:06;;;;;;;23.42;12.13;;;;;;;;;;5816607;28;20109;-76
2024/01/31 15:56:56;;;;;;;33.63;17.30;;;;;;;;;;5831904;28;20416;-76
2024/01/31 15:59:47;;;;;;;33.38;13.82;;;;;;;;;;5831275;28;20042;-76
2024/01/31 16:02:38;;;;;;;50.05;27.10;;;;;;;;;;5816422;28;20481;-76
2024/01/31 16:05:29;;;;;;;49.88;25.27;;;;;;;;;;5831414;28;20459;-76
2024/01/31 16:08:20;;;;;;;39.15;18.60;;;;;;;;;;5814887;28;20085;-77
2024/01/31 16:11:13;;;;;;;29.27;12.40;;;;;;;;;;5821343;28;20133;-77
2024/01/31 16:14:04;;;;;;;15.35;10.82;;;;;;;;;;5822716;28;20076;-77
2024/01/31 16:16:54;;;;;;;19.67;11.82;;;;;;;;;;5823433;28;20050;-77
2024/01/31 16:19:45;;;;;;;21.77;11.65;;;;;;;;;;5838508;28;20129;-77
2024/01/31 16:22:36;;;;;;;12.52;7.65;;;;;;;;;;5823954;28;20050;-77
2024/01/31 16:25:28;;;;;;;14.80;10.32;;;;;;;;;;5822622;28;20046;-76
2024/01/31 16:28:18;;;;;;;14.48;8.48;;;;;;;;;;5838623;28;20050;-77
2024/01/31 16:31:11;;;;;;;18.08;9.80;;;;;;;;;;5823633;28;20046;-77
2024/01/31 16:34:02;;;;;;;27.88;10.95;;;;;;;;;;5822391;28;20050;-77
2024/01/31 16:36:53;;;;;;;18.00;12.25;;;;;;;;;;5839307;28;20050;-76
2024/01/31 16:39:43;;;;;;;18.95;11.43;;;;;;;;;;5838379;28;20069;-77
2024/01/31 16:42:35;;;;;;;29.98;15.05;;;;;;;;;;5838349;28;20046;-77
2024/01/31 16:45:25;;;;;;;24.40;14.23;;;;;;;;;;5838261;28;20050;-77
2024/01/31 16:48:18;;;;;;;28.77;13.48;;;;;;;;;;5823352;28;20046;-77
2024/01/31 16:51:12;;;;;;;24.55;14.50;;;;;;;;;;5838224;28;20129;-77
2024/01/31 16:54:03;;;;;;;38.42;19.90;;;;;;;;;;5838583;28;20053;-77
2024/01/31 16:56:54;;;;;;;43.53;20.13;;;;;;;;;;5822875;28;20065;-77
2024/01/31 16:59:45;;;;;;;28.92;16.90;;;;;;;;;;5838418;28;20049;-77